Logan, Minnesota
Current Conditions -  °F | °C
As of 7:34 AM on Friday 28 Nov 2014 (Local Time) from KAIT Reporting Station
Light Snow Light Snow  
Wind Chill: -12°   Ceiling: 2800
Heat Index: -12°   Visibility: 5mi
Dew Point: -15°   Wind: 0mph
Humidity: 79%   Direction: NA
Pressure: 29.98"   Gusts: NA
Location:  46.7281°N, 93.6101°W
Report Text: KAIT 281334Z AUTO 00000KT 5SM -SN OVC028 M12/M15 A2998 RMK AO2
Loading
Personal Weather Stations






























Interactive Weather Map New forecast layout! Learn more

10-Day Weather Forecast

Advertisements
Track Severe Weather on mobile